GLO1418 SBGL-SBJP
Flight info
| Callsign | GLO1418 |
|---|---|
| Flight time | 2h 45m |
| Altitude | 37000 |
| Route | UKENU UN857 MUDSI UZ11 REC |
| Aircraft | B378/M-L/2000 |
Departure
| Time | 2026-04-20 18:23 |
|---|---|
| Airport | Rio Galeão – Tom Jobim International Airport (SBGL) |
Arrival
| Time | 2026-04-20 21:09 |
|---|---|
| Airport | Presidente Castro Pinto International Airport (SBJP) |
| Time | Latitude | Longitude | Altitude | Speed | Heading |
|---|---|---|---|---|---|
| 2026-04-20 18:00 | -22.81179 | -43.25513 | 29 ft | 0 kts | 255° |
| 2026-04-20 18:16 | -22.81175 | -43.25501 | 29 ft | 2 kts | 248° |
| 2026-04-20 18:16 | -22.81173 | -43.25485 | 29 ft | 2 kts | 283° |
| 2026-04-20 18:16 | -22.81179 | -43.25470 | 30 ft | 2 kts | 312° |
| 2026-04-20 18:17 | -22.81190 | -43.25461 | 30 ft | 0 kts | 337° |
| 2026-04-20 18:17 | -22.81196 | -43.25458 | 30 ft | 1 kts | 341° |
| 2026-04-20 18:17 | -22.81197 | -43.25458 | 30 ft | 0 kts | 340° |
| 2026-04-20 18:19 | -22.81189 | -43.25461 | 30 ft | 1 kts | 341° |
| 2026-04-20 18:19 | -22.81173 | -43.25467 | 30 ft | 3 kts | 341° |
| 2026-04-20 18:19 | -22.81141 | -43.25476 | 30 ft | 6 kts | 348° |
| 2026-04-20 18:20 | -22.81089 | -43.25486 | 29 ft | 8 kts | 353° |
| 2026-04-20 18:20 | -22.81022 | -43.25489 | 29 ft | 10 kts | 7° |
| 2026-04-20 18:20 | -22.80948 | -43.25478 | 29 ft | 9 kts | 350° |
| 2026-04-20 18:20 | -22.80913 | -43.25531 | 29 ft | 10 kts | 295° |
| 2026-04-20 18:21 | -22.80851 | -43.25591 | 29 ft | 13 kts | 357° |
| 2026-04-20 18:21 | -22.80753 | -43.25534 | 26 ft | 18 kts | 35° |
| 2026-04-20 18:21 | -22.80638 | -43.25457 | 26 ft | 17 kts | 9° |
| 2026-04-20 18:21 | -22.80552 | -43.25514 | 26 ft | 13 kts | 315° |
| 2026-04-20 18:22 | -22.80470 | -43.25584 | 26 ft | 15 kts | 325° |
| 2026-04-20 18:22 | -22.80370 | -43.25612 | 26 ft | 15 kts | 29° |
| 2026-04-20 18:22 | -22.80282 | -43.25542 | 26 ft | 15 kts | 35° |
| 2026-04-20 18:22 | -22.80191 | -43.25461 | 26 ft | 19 kts | 52° |
| 2026-04-20 18:23 | -22.80090 | -43.25126 | 26 ft | 85 kts | 74° |
| 2026-04-20 18:23 | -22.79854 | -43.24214 | 26 ft | 161 kts | 74° |
| 2026-04-20 18:23 | -22.79476 | -43.22868 | 366 ft | 199 kts | 74° |
| 2026-04-20 18:23 | -22.79182 | -43.21375 | 1360 ft | 206 kts | 78° |
| 2026-04-20 18:24 | -22.78870 | -43.19840 | 1932 ft | 225 kts | 77° |
| 2026-04-20 18:24 | -22.78487 | -43.18051 | 2226 ft | 251 kts | 77° |
| 2026-04-20 18:24 | -22.78103 | -43.16292 | 2871 ft | 257 kts | 77° |
| 2026-04-20 18:24 | -22.77666 | -43.14278 | 3659 ft | 262 kts | 77° |
| 2026-04-20 18:25 | -22.77237 | -43.12291 | 4433 ft | 266 kts | 77° |
| 2026-04-20 18:25 | -22.76806 | -43.10290 | 5198 ft | 269 kts | 77° |
| 2026-04-20 18:25 | -22.76369 | -43.08261 | 5961 ft | 272 kts | 77° |
| 2026-04-20 18:25 | -22.75927 | -43.06208 | 6725 ft | 275 kts | 77° |
| 2026-04-20 18:26 | -22.75319 | -43.04193 | 7461 ft | 279 kts | 60° |
| 2026-04-20 18:26 | -22.73993 | -43.02700 | 8195 ft | 281 kts | 29° |
| 2026-04-20 18:26 | -22.72162 | -43.02060 | 8955 ft | 283 kts | 12° |
| 2026-04-20 18:26 | -22.70175 | -43.01601 | 9686 ft | 287 kts | 12° |
| 2026-04-20 18:27 | -22.68183 | -43.01112 | 10383 ft | 293 kts | 13° |
| 2026-04-20 18:27 | -22.66118 | -43.00600 | 10999 ft | 302 kts | 13° |
| 2026-04-20 18:27 | -22.64032 | -43.00082 | 11747 ft | 305 kts | 13° |
| 2026-04-20 18:27 | -22.61891 | -42.99551 | 12499 ft | 309 kts | 13° |
| 2026-04-20 18:28 | -22.59734 | -42.99016 | 13253 ft | 312 kts | 13° |
| 2026-04-20 18:28 | -22.57586 | -42.98483 | 13997 ft | 316 kts | 13° |
| 2026-04-20 18:28 | -22.55393 | -42.97940 | 14742 ft | 319 kts | 13° |
| 2026-04-20 18:28 | -22.53203 | -42.97397 | 15476 ft | 323 kts | 13° |
| 2026-04-20 18:29 | -22.50958 | -42.96841 | 16199 ft | 326 kts | 13° |
| 2026-04-20 18:29 | -22.48696 | -42.96281 | 16903 ft | 330 kts | 13° |
| 2026-04-20 18:29 | -22.46385 | -42.95708 | 17598 ft | 334 kts | 13° |
| 2026-04-20 18:29 | -22.44074 | -42.95137 | 17988 ft | 343 kts | 13° |
| 2026-04-20 18:30 | -22.41697 | -42.94549 | 17961 ft | 340 kts | 13° |
| 2026-04-20 18:30 | -22.39373 | -42.93974 | 17974 ft | 334 kts | 13° |
| 2026-04-20 18:30 | -22.37036 | -42.93396 | 17974 ft | 334 kts | 13° |
| 2026-04-20 18:30 | -22.34714 | -42.92854 | 17974 ft | 335 kts | 9° |
| 2026-04-20 18:31 | -22.32348 | -42.92553 | 17973 ft | 336 kts | 2° |
| 2026-04-20 18:31 | -22.29939 | -42.92655 | 17976 ft | 336 kts | 353° |
| 2026-04-20 18:31 | -22.27593 | -42.93010 | 17975 ft | 336 kts | 351° |
| 2026-04-20 18:31 | -22.25236 | -42.93407 | 17972 ft | 336 kts | 351° |
| 2026-04-20 18:32 | -22.22867 | -42.93805 | 17973 ft | 336 kts | 351° |
| 2026-04-20 18:32 | -22.20544 | -42.94168 | 17971 ft | 336 kts | 355° |
| 2026-04-20 18:32 | -22.18143 | -42.94170 | 17968 ft | 335 kts | 7° |
| 2026-04-20 18:32 | -22.15873 | -42.93522 | 17977 ft | 336 kts | 24° |
| 2026-04-20 18:33 | -22.13808 | -42.92207 | 18523 ft | 338 kts | 37° |
| 2026-04-20 18:33 | -22.12011 | -42.90443 | 19158 ft | 342 kts | 46° |
| 2026-04-20 18:33 | -22.10344 | -42.88478 | 19785 ft | 345 kts | 48° |
| 2026-04-20 18:33 | -22.08714 | -42.86518 | 20394 ft | 348 kts | 48° |
| 2026-04-20 18:34 | -22.07108 | -42.84594 | 20975 ft | 351 kts | 48° |
| 2026-04-20 18:34 | -22.05467 | -42.82634 | 21549 ft | 355 kts | 48° |
| 2026-04-20 18:34 | -22.03794 | -42.80642 | 22119 ft | 358 kts | 48° |
| 2026-04-20 18:34 | -22.02067 | -42.78590 | 22685 ft | 361 kts | 48° |
| 2026-04-20 18:35 | -22.00351 | -42.76555 | 23230 ft | 364 kts | 47° |
| 2026-04-20 18:35 | -21.98615 | -42.74497 | 23760 ft | 367 kts | 47° |
| 2026-04-20 18:35 | -21.96848 | -42.72404 | 24284 ft | 370 kts | 47° |
| 2026-04-20 18:35 | -21.95086 | -42.70319 | 24786 ft | 373 kts | 47° |
| 2026-04-20 18:36 | -21.93271 | -42.68173 | 25289 ft | 376 kts | 47° |
| 2026-04-20 18:36 | -21.91458 | -42.66030 | 25772 ft | 379 kts | 47° |
| 2026-04-20 18:36 | -21.89646 | -42.63890 | 26241 ft | 381 kts | 48° |
| 2026-04-20 18:36 | -21.87812 | -42.61723 | 26697 ft | 384 kts | 48° |
| 2026-04-20 18:37 | -21.85935 | -42.59508 | 27153 ft | 387 kts | 47° |
| 2026-04-20 18:37 | -21.84085 | -42.57325 | 27584 ft | 390 kts | 47° |
| 2026-04-20 18:37 | -21.82455 | -42.55402 | 27956 ft | 392 kts | 47° |
| 2026-04-20 18:37 | -21.80426 | -42.53011 | 28400 ft | 395 kts | 47° |
| 2026-04-20 18:38 | -21.78562 | -42.50814 | 28803 ft | 397 kts | 48° |
| 2026-04-20 18:38 | -21.76704 | -42.48594 | 29274 ft | 397 kts | 49° |
| 2026-04-20 18:38 | -21.74914 | -42.46326 | 29762 ft | 396 kts | 51° |
| 2026-04-20 18:38 | -21.73214 | -42.43951 | 30113 ft | 400 kts | 52° |
| 2026-04-20 18:39 | -21.71374 | -42.41682 | 30288 ft | 407 kts | 46° |
| 2026-04-20 18:39 | -21.69360 | -42.39489 | 30661 ft | 409 kts | 45° |
| 2026-04-20 18:39 | -21.67367 | -42.37303 | 30978 ft | 412 kts | 46° |
| 2026-04-20 18:39 | -21.65348 | -42.35041 | 31329 ft | 414 kts | 46° |
| 2026-04-20 18:40 | -21.63413 | -42.32840 | 31651 ft | 416 kts | 46° |
| 2026-04-20 18:40 | -21.61418 | -42.30545 | 31982 ft | 418 kts | 47° |
| 2026-04-20 18:40 | -21.59444 | -42.28262 | 32300 ft | 420 kts | 47° |
| 2026-04-20 18:40 | -21.57430 | -42.25923 | 32619 ft | 423 kts | 47° |
| 2026-04-20 18:41 | -21.55417 | -42.23579 | 32930 ft | 425 kts | 47° |
| 2026-04-20 18:41 | -21.53402 | -42.21229 | 33233 ft | 427 kts | 47° |
| 2026-04-20 18:41 | -21.51395 | -42.18886 | 33530 ft | 429 kts | 47° |
| 2026-04-20 18:41 | -21.49351 | -42.16499 | 33821 ft | 431 kts | 47° |
| 2026-04-20 18:42 | -21.47304 | -42.14107 | 34111 ft | 433 kts | 47° |
| 2026-04-20 18:42 | -21.45259 | -42.11718 | 34387 ft | 435 kts | 47° |
| 2026-04-20 18:42 | -21.43213 | -42.09328 | 34664 ft | 437 kts | 47° |
| 2026-04-20 18:42 | -21.41124 | -42.06889 | 34938 ft | 438 kts | 47° |
| 2026-04-20 18:43 | -21.39067 | -42.04487 | 35267 ft | 439 kts | 47° |
| 2026-04-20 18:43 | -21.36987 | -42.02059 | 35615 ft | 438 kts | 47° |
| 2026-04-20 18:43 | -21.34900 | -41.99625 | 35959 ft | 438 kts | 47° |
| 2026-04-20 18:43 | -21.32846 | -41.97228 | 36288 ft | 437 kts | 47° |
| 2026-04-20 18:44 | -21.30766 | -41.94803 | 36599 ft | 437 kts | 47° |
| 2026-04-20 18:44 | -21.28696 | -41.92392 | 36900 ft | 437 kts | 47° |
| 2026-04-20 18:44 | -21.26645 | -41.90002 | 37015 ft | 439 kts | 47° |
| 2026-04-20 18:44 | -21.24630 | -41.87656 | 36995 ft | 439 kts | 47° |
| 2026-04-20 18:45 | -21.20313 | -41.83091 | 37000 ft | 432 kts | 40° |
| 2026-04-20 18:45 | -21.15256 | -41.79540 | 37003 ft | 433 kts | 29° |
| 2026-04-20 18:46 | -21.09962 | -41.76384 | 36999 ft | 435 kts | 29° |
| 2026-04-20 18:46 | -21.04619 | -41.73215 | 36999 ft | 435 kts | 29° |
| 2026-04-20 18:47 | -20.99338 | -41.70089 | 36999 ft | 434 kts | 29° |
| 2026-04-20 18:47 | -20.93996 | -41.66929 | 37000 ft | 434 kts | 29° |
| 2026-04-20 18:48 | -20.88805 | -41.63862 | 37000 ft | 434 kts | 29° |
| 2026-04-20 18:48 | -20.83488 | -41.60723 | 36999 ft | 434 kts | 29° |
| 2026-04-20 18:49 | -20.78187 | -41.57596 | 36999 ft | 434 kts | 29° |
| 2026-04-20 18:49 | -20.72876 | -41.54466 | 36999 ft | 434 kts | 29° |
| 2026-04-20 18:50 | -20.67565 | -41.51339 | 36999 ft | 434 kts | 29° |
| 2026-04-20 18:50 | -20.62285 | -41.48232 | 36999 ft | 434 kts | 29° |
| 2026-04-20 18:51 | -20.56978 | -41.45112 | 36999 ft | 434 kts | 29° |
| 2026-04-20 18:51 | -20.51648 | -41.41981 | 36999 ft | 434 kts | 29° |
| 2026-04-20 18:52 | -20.46337 | -41.38853 | 37000 ft | 434 kts | 29° |
| 2026-04-20 18:52 | -20.41048 | -41.35722 | 37000 ft | 434 kts | 29° |
| 2026-04-20 18:53 | -20.35759 | -41.32594 | 36999 ft | 434 kts | 29° |
| 2026-04-20 18:53 | -20.30430 | -41.29445 | 36999 ft | 434 kts | 29° |
| 2026-04-20 18:54 | -20.25116 | -41.26308 | 36999 ft | 434 kts | 29° |
| 2026-04-20 18:54 | -20.19817 | -41.23182 | 36999 ft | 434 kts | 29° |
| 2026-04-20 18:55 | -20.14502 | -41.20050 | 36999 ft | 434 kts | 29° |
| 2026-04-20 18:55 | -20.09150 | -41.16898 | 36999 ft | 434 kts | 29° |
| 2026-04-20 18:56 | -20.03849 | -41.13779 | 36999 ft | 434 kts | 29° |
| 2026-04-20 18:56 | -19.98510 | -41.10640 | 36999 ft | 434 kts | 29° |
| 2026-04-20 18:57 | -19.93208 | -41.07525 | 36999 ft | 434 kts | 29° |
| 2026-04-20 18:57 | -19.87873 | -41.04393 | 37000 ft | 434 kts | 29° |
| 2026-04-20 18:58 | -19.82551 | -41.01281 | 37000 ft | 434 kts | 28° |
| 2026-04-20 18:58 | -19.77247 | -40.98192 | 36999 ft | 434 kts | 28° |
| 2026-04-20 18:59 | -19.71899 | -40.95079 | 36999 ft | 434 kts | 28° |
| 2026-04-20 18:59 | -19.66602 | -40.91998 | 37000 ft | 434 kts | 28° |
| 2026-04-20 19:00 | -19.61259 | -40.88893 | 36999 ft | 434 kts | 28° |
| 2026-04-20 19:00 | -19.55917 | -40.85791 | 37000 ft | 434 kts | 28° |
| 2026-04-20 19:01 | -19.50561 | -40.82692 | 37000 ft | 434 kts | 28° |
| 2026-04-20 19:01 | -19.45221 | -40.79604 | 37000 ft | 434 kts | 28° |
| 2026-04-20 19:02 | -19.39898 | -40.76528 | 37000 ft | 434 kts | 28° |
| 2026-04-20 19:02 | -19.34547 | -40.73439 | 37000 ft | 434 kts | 28° |
| 2026-04-20 19:03 | -19.29233 | -40.70372 | 37000 ft | 434 kts | 28° |
| 2026-04-20 19:03 | -19.23873 | -40.67283 | 37000 ft | 434 kts | 28° |
| 2026-04-20 19:04 | -19.18568 | -40.64226 | 37000 ft | 434 kts | 28° |
| 2026-04-20 19:04 | -19.13284 | -40.61184 | 37000 ft | 434 kts | 28° |
| 2026-04-20 19:05 | -19.07945 | -40.58112 | 37000 ft | 434 kts | 28° |
| 2026-04-20 19:05 | -19.02584 | -40.55030 | 37000 ft | 434 kts | 28° |
| 2026-04-20 19:06 | -18.97283 | -40.51985 | 37000 ft | 434 kts | 28° |
| 2026-04-20 19:06 | -18.91943 | -40.48920 | 37000 ft | 434 kts | 28° |
| 2026-04-20 19:07 | -18.86587 | -40.45847 | 36999 ft | 434 kts | 28° |
| 2026-04-20 19:07 | -18.81285 | -40.42809 | 36999 ft | 434 kts | 28° |
| 2026-04-20 19:08 | -18.73245 | -40.38205 | 36999 ft | 434 kts | 28° |
| 2026-04-20 19:09 | -18.67925 | -40.35161 | 36999 ft | 434 kts | 28° |
| 2026-04-20 19:09 | -18.62590 | -40.32111 | 37000 ft | 434 kts | 28° |
| 2026-04-20 19:10 | -18.57254 | -40.29062 | 37000 ft | 434 kts | 28° |
| 2026-04-20 19:10 | -18.51911 | -40.26012 | 37000 ft | 434 kts | 28° |
| 2026-04-20 19:11 | -18.46569 | -40.22964 | 36999 ft | 434 kts | 28° |
| 2026-04-20 19:11 | -18.41211 | -40.19910 | 36999 ft | 434 kts | 28° |
| 2026-04-20 19:12 | -18.35882 | -40.16874 | 36999 ft | 434 kts | 28° |
| 2026-04-20 19:12 | -18.30577 | -40.13854 | 36999 ft | 434 kts | 28° |
| 2026-04-20 19:13 | -18.25222 | -40.10808 | 36999 ft | 434 kts | 28° |
| 2026-04-20 19:13 | -18.19916 | -40.07791 | 37000 ft | 434 kts | 28° |
| 2026-04-20 19:14 | -18.14581 | -40.04762 | 37000 ft | 434 kts | 28° |
| 2026-04-20 19:14 | -18.09249 | -40.01734 | 37000 ft | 434 kts | 28° |
| 2026-04-20 19:15 | -18.03887 | -39.98693 | 37000 ft | 434 kts | 28° |
| 2026-04-20 19:15 | -17.98567 | -39.95671 | 37000 ft | 434 kts | 28° |
| 2026-04-20 19:16 | -17.93240 | -39.92625 | 36999 ft | 434 kts | 28° |
| 2026-04-20 19:16 | -17.87918 | -39.89584 | 36999 ft | 434 kts | 28° |
| 2026-04-20 19:17 | -17.82573 | -39.86533 | 36999 ft | 434 kts | 28° |
| 2026-04-20 19:17 | -17.77248 | -39.83496 | 36999 ft | 434 kts | 28° |
| 2026-04-20 19:18 | -17.71890 | -39.80442 | 36999 ft | 434 kts | 28° |
| 2026-04-20 19:18 | -17.66553 | -39.77402 | 36999 ft | 434 kts | 28° |
| 2026-04-20 19:19 | -17.61195 | -39.74352 | 37000 ft | 434 kts | 28° |
| 2026-04-20 19:19 | -17.55892 | -39.71336 | 36999 ft | 434 kts | 28° |
| 2026-04-20 19:20 | -17.50538 | -39.68293 | 37000 ft | 434 kts | 28° |
| 2026-04-20 19:20 | -17.45192 | -39.65256 | 36999 ft | 434 kts | 28° |
| 2026-04-20 19:21 | -17.39869 | -39.62235 | 37000 ft | 434 kts | 28° |
| 2026-04-20 19:21 | -17.34541 | -39.59213 | 37000 ft | 434 kts | 28° |
| 2026-04-20 19:22 | -17.29448 | -39.56325 | 37000 ft | 434 kts | 28° |
| 2026-04-20 19:22 | -17.24432 | -39.53484 | 37000 ft | 434 kts | 28° |
| 2026-04-20 19:23 | -17.18733 | -39.50258 | 37000 ft | 434 kts | 28° |
| 2026-04-20 19:23 | -17.13427 | -39.47256 | 37000 ft | 434 kts | 28° |
| 2026-04-20 19:24 | -17.08073 | -39.44229 | 37000 ft | 434 kts | 28° |
| 2026-04-20 19:24 | -17.02781 | -39.41239 | 37000 ft | 434 kts | 28° |
| 2026-04-20 19:25 | -16.97471 | -39.38241 | 37000 ft | 434 kts | 28° |
| 2026-04-20 19:25 | -16.92207 | -39.35271 | 37000 ft | 434 kts | 28° |
| 2026-04-20 19:26 | -16.86868 | -39.32260 | 37000 ft | 434 kts | 28° |
| 2026-04-20 19:26 | -16.81568 | -39.29273 | 37000 ft | 434 kts | 28° |
| 2026-04-20 19:27 | -16.76248 | -39.26277 | 37000 ft | 434 kts | 28° |
| 2026-04-20 19:27 | -16.70933 | -39.23286 | 37000 ft | 434 kts | 28° |
| 2026-04-20 19:28 | -16.65649 | -39.20314 | 37000 ft | 434 kts | 28° |
| 2026-04-20 19:28 | -16.60333 | -39.17326 | 37000 ft | 434 kts | 28° |
| 2026-04-20 19:29 | -16.55025 | -39.14344 | 36999 ft | 434 kts | 28° |
| 2026-04-20 19:29 | -16.49726 | -39.11369 | 37000 ft | 434 kts | 28° |
| 2026-04-20 19:30 | -16.44411 | -39.08387 | 37000 ft | 434 kts | 28° |
| 2026-04-20 19:30 | -16.39056 | -39.05509 | 37000 ft | 434 kts | 27° |
| 2026-04-20 19:31 | -16.33656 | -39.02659 | 37000 ft | 434 kts | 27° |
| 2026-04-20 19:31 | -16.28290 | -38.99823 | 37000 ft | 434 kts | 27° |
| 2026-04-20 19:32 | -16.22913 | -38.96977 | 36999 ft | 434 kts | 27° |
| 2026-04-20 19:32 | -16.17567 | -38.94051 | 36999 ft | 434 kts | 28° |
| 2026-04-20 19:33 | -16.12230 | -38.91110 | 37000 ft | 434 kts | 28° |
| 2026-04-20 19:33 | -16.06904 | -38.88180 | 37000 ft | 434 kts | 28° |
| 2026-04-20 19:34 | -16.01584 | -38.85257 | 37000 ft | 434 kts | 28° |
| 2026-04-20 19:34 | -15.96261 | -38.82335 | 37000 ft | 434 kts | 28° |
| 2026-04-20 19:35 | -15.90929 | -38.79411 | 37000 ft | 434 kts | 28° |
| 2026-04-20 19:35 | -15.85610 | -38.76496 | 36999 ft | 434 kts | 28° |
| 2026-04-20 19:36 | -15.80263 | -38.73568 | 36999 ft | 434 kts | 28° |
| 2026-04-20 19:36 | -15.74924 | -38.70645 | 36999 ft | 434 kts | 28° |
| 2026-04-20 19:37 | -15.69571 | -38.67717 | 36999 ft | 434 kts | 28° |
| 2026-04-20 19:37 | -15.64267 | -38.64817 | 36999 ft | 434 kts | 28° |
| 2026-04-20 19:38 | -15.58913 | -38.61892 | 36999 ft | 434 kts | 28° |
| 2026-04-20 19:38 | -15.53565 | -38.58972 | 37000 ft | 434 kts | 28° |
| 2026-04-20 19:39 | -15.48235 | -38.56063 | 37000 ft | 434 kts | 28° |
| 2026-04-20 19:39 | -15.42921 | -38.53165 | 37000 ft | 434 kts | 28° |
| 2026-04-20 19:40 | -15.37626 | -38.50279 | 37000 ft | 434 kts | 28° |
| 2026-04-20 19:40 | -15.32230 | -38.47340 | 37000 ft | 434 kts | 28° |
| 2026-04-20 19:41 | -15.26896 | -38.44436 | 37000 ft | 434 kts | 28° |
| 2026-04-20 19:41 | -15.21538 | -38.41520 | 37000 ft | 434 kts | 28° |
| 2026-04-20 19:42 | -15.16184 | -38.38609 | 37000 ft | 434 kts | 28° |
| 2026-04-20 19:42 | -15.10858 | -38.35714 | 37000 ft | 434 kts | 28° |
| 2026-04-20 19:43 | -15.06428 | -38.33308 | 36999 ft | 434 kts | 27° |
| 2026-04-20 19:43 | -15.00193 | -38.29923 | 36999 ft | 434 kts | 27° |
| 2026-04-20 19:44 | -14.94830 | -38.27014 | 36999 ft | 434 kts | 27° |
| 2026-04-20 19:44 | -14.89486 | -38.24117 | 36999 ft | 434 kts | 27° |
| 2026-04-20 19:45 | -14.84153 | -38.21227 | 37000 ft | 434 kts | 27° |
| 2026-04-20 19:45 | -14.78790 | -38.18323 | 37000 ft | 434 kts | 27° |
| 2026-04-20 19:46 | -14.73468 | -38.15443 | 37000 ft | 434 kts | 27° |
| 2026-04-20 19:46 | -14.68116 | -38.12548 | 37000 ft | 434 kts | 27° |
| 2026-04-20 19:47 | -14.62784 | -38.09666 | 36999 ft | 434 kts | 27° |
| 2026-04-20 19:47 | -14.57451 | -38.06784 | 37000 ft | 434 kts | 27° |
| 2026-04-20 19:48 | -14.52112 | -38.03902 | 37000 ft | 434 kts | 27° |
| 2026-04-20 19:48 | -14.46790 | -38.01030 | 37000 ft | 434 kts | 27° |
| 2026-04-20 19:49 | -14.41447 | -37.98147 | 37000 ft | 434 kts | 27° |
| 2026-04-20 19:49 | -14.36074 | -37.95251 | 37000 ft | 434 kts | 27° |
| 2026-04-20 19:50 | -14.30745 | -37.92380 | 37000 ft | 434 kts | 27° |
| 2026-04-20 19:50 | -14.25397 | -37.89500 | 36999 ft | 434 kts | 27° |
| 2026-04-20 19:51 | -14.20049 | -37.86621 | 37000 ft | 434 kts | 27° |
| 2026-04-20 19:51 | -14.14693 | -37.83740 | 37000 ft | 434 kts | 27° |
| 2026-04-20 19:52 | -14.09366 | -37.80876 | 37000 ft | 434 kts | 27° |
| 2026-04-20 19:52 | -14.04031 | -37.78009 | 37000 ft | 434 kts | 27° |
| 2026-04-20 19:53 | -13.98672 | -37.75131 | 37000 ft | 434 kts | 27° |
| 2026-04-20 19:53 | -13.93303 | -37.72249 | 37000 ft | 434 kts | 27° |
| 2026-04-20 19:54 | -13.88030 | -37.69420 | 36999 ft | 434 kts | 27° |
| 2026-04-20 19:54 | -13.82664 | -37.66543 | 36999 ft | 434 kts | 27° |
| 2026-04-20 19:55 | -13.77318 | -37.63678 | 36999 ft | 434 kts | 27° |
| 2026-04-20 19:55 | -13.71962 | -37.60809 | 36999 ft | 434 kts | 27° |
| 2026-04-20 19:56 | -13.66626 | -37.57952 | 37000 ft | 434 kts | 27° |
| 2026-04-20 19:56 | -13.61261 | -37.55081 | 36999 ft | 434 kts | 27° |
| 2026-04-20 19:57 | -13.55943 | -37.52237 | 37000 ft | 434 kts | 27° |
| 2026-04-20 19:57 | -13.50589 | -37.49375 | 36999 ft | 434 kts | 27° |
| 2026-04-20 19:58 | -13.45239 | -37.46517 | 37000 ft | 434 kts | 27° |
| 2026-04-20 19:58 | -13.39903 | -37.43667 | 37000 ft | 434 kts | 27° |
| 2026-04-20 19:59 | -13.34532 | -37.40801 | 37000 ft | 434 kts | 27° |
| 2026-04-20 19:59 | -13.29191 | -37.37951 | 37000 ft | 434 kts | 27° |
| 2026-04-20 20:00 | -13.23816 | -37.35085 | 36999 ft | 434 kts | 27° |
| 2026-04-20 20:00 | -13.18471 | -37.32236 | 36999 ft | 434 kts | 27° |
| 2026-04-20 20:01 | -13.13118 | -37.29385 | 36999 ft | 434 kts | 27° |
| 2026-04-20 20:01 | -13.07774 | -37.26540 | 36999 ft | 434 kts | 27° |
| 2026-04-20 20:02 | -13.02426 | -37.23694 | 36999 ft | 434 kts | 27° |
| 2026-04-20 20:02 | -12.97075 | -37.20848 | 36999 ft | 434 kts | 27° |
| 2026-04-20 20:03 | -12.91704 | -37.17993 | 36999 ft | 434 kts | 27° |
| 2026-04-20 20:03 | -12.86352 | -37.15149 | 37000 ft | 434 kts | 27° |
| 2026-04-20 20:04 | -12.81003 | -37.12308 | 37000 ft | 434 kts | 27° |
| 2026-04-20 20:04 | -12.75672 | -37.09478 | 37000 ft | 434 kts | 27° |
| 2026-04-20 20:05 | -12.70304 | -37.06630 | 37000 ft | 434 kts | 27° |
| 2026-04-20 20:05 | -12.64963 | -37.03797 | 37000 ft | 434 kts | 27° |
| 2026-04-20 20:06 | -12.59673 | -37.00993 | 36999 ft | 434 kts | 27° |
| 2026-04-20 20:06 | -12.54281 | -36.98136 | 37000 ft | 434 kts | 27° |
| 2026-04-20 20:07 | -12.48908 | -36.95291 | 37000 ft | 434 kts | 27° |
| 2026-04-20 20:07 | -12.43564 | -36.92462 | 37000 ft | 434 kts | 27° |
| 2026-04-20 20:08 | -12.38208 | -36.89629 | 37000 ft | 434 kts | 27° |
| 2026-04-20 20:08 | -12.32860 | -36.86800 | 37000 ft | 434 kts | 27° |
| 2026-04-20 20:09 | -12.27490 | -36.83962 | 37000 ft | 434 kts | 27° |
| 2026-04-20 20:09 | -12.22346 | -36.81244 | 37000 ft | 434 kts | 27° |
| 2026-04-20 20:10 | -12.16804 | -36.78317 | 37000 ft | 434 kts | 27° |
| 2026-04-20 20:10 | -12.11441 | -36.75486 | 37000 ft | 434 kts | 27° |
| 2026-04-20 20:11 | -12.06090 | -36.72663 | 37000 ft | 434 kts | 27° |
| 2026-04-20 20:11 | -12.00727 | -36.69835 | 37000 ft | 434 kts | 27° |
| 2026-04-20 20:12 | -11.95391 | -36.67022 | 37000 ft | 434 kts | 27° |
| 2026-04-20 20:12 | -11.90001 | -36.64182 | 37000 ft | 434 kts | 27° |
| 2026-04-20 20:13 | -11.81993 | -36.59965 | 36999 ft | 434 kts | 27° |
| 2026-04-20 20:13 | -11.76625 | -36.57139 | 36999 ft | 434 kts | 27° |
| 2026-04-20 20:14 | -11.71255 | -36.54314 | 36999 ft | 434 kts | 27° |
| 2026-04-20 20:14 | -11.65900 | -36.51498 | 36999 ft | 434 kts | 27° |
| 2026-04-20 20:15 | -11.60543 | -36.48682 | 36999 ft | 434 kts | 27° |
| 2026-04-20 20:15 | -11.55177 | -36.45863 | 37000 ft | 434 kts | 27° |
| 2026-04-20 20:16 | -11.49812 | -36.43046 | 37000 ft | 434 kts | 27° |
| 2026-04-20 20:16 | -11.44434 | -36.40223 | 37000 ft | 434 kts | 27° |
| 2026-04-20 20:17 | -11.39065 | -36.37405 | 36999 ft | 434 kts | 27° |
| 2026-04-20 20:17 | -11.33701 | -36.34592 | 37000 ft | 434 kts | 27° |
| 2026-04-20 20:18 | -11.28362 | -36.31793 | 37000 ft | 434 kts | 27° |
| 2026-04-20 20:18 | -11.23003 | -36.28985 | 36999 ft | 434 kts | 27° |
| 2026-04-20 20:19 | -11.17616 | -36.26163 | 36999 ft | 434 kts | 27° |
| 2026-04-20 20:19 | -11.12265 | -36.23352 | 36999 ft | 434 kts | 28° |
| 2026-04-20 20:20 | -11.07052 | -36.20329 | 36999 ft | 434 kts | 30° |
| 2026-04-20 20:20 | -11.01819 | -36.17236 | 37000 ft | 434 kts | 30° |
| 2026-04-20 20:21 | -10.96626 | -36.14178 | 37000 ft | 434 kts | 30° |
| 2026-04-20 20:21 | -10.91395 | -36.11107 | 37000 ft | 434 kts | 30° |
| 2026-04-20 20:22 | -10.86178 | -36.08049 | 37000 ft | 434 kts | 30° |
| 2026-04-20 20:22 | -10.80946 | -36.04985 | 37000 ft | 434 kts | 30° |
| 2026-04-20 20:23 | -10.75713 | -36.01924 | 37000 ft | 434 kts | 30° |
| 2026-04-20 20:23 | -10.70522 | -35.98888 | 37000 ft | 434 kts | 30° |
| 2026-04-20 20:24 | -10.65258 | -35.95811 | 37000 ft | 434 kts | 30° |
| 2026-04-20 20:24 | -10.60047 | -35.92767 | 37000 ft | 434 kts | 30° |
| 2026-04-20 20:25 | -10.54861 | -35.89739 | 37000 ft | 434 kts | 30° |
| 2026-04-20 20:25 | -10.49631 | -35.86686 | 36999 ft | 434 kts | 30° |
| 2026-04-20 20:26 | -10.44374 | -35.83619 | 37000 ft | 434 kts | 30° |
| 2026-04-20 20:26 | -10.39166 | -35.80581 | 37000 ft | 434 kts | 30° |
| 2026-04-20 20:27 | -10.33940 | -35.77534 | 37000 ft | 434 kts | 30° |
| 2026-04-20 20:27 | -10.28715 | -35.74489 | 37000 ft | 434 kts | 30° |
| 2026-04-20 20:28 | -10.23475 | -35.71436 | 36999 ft | 434 kts | 30° |
| 2026-04-20 20:28 | -10.18238 | -35.68387 | 37000 ft | 434 kts | 30° |
| 2026-04-20 20:29 | -10.13026 | -35.65353 | 37000 ft | 434 kts | 30° |
| 2026-04-20 20:29 | -10.07799 | -35.62312 | 37000 ft | 434 kts | 30° |
| 2026-04-20 20:30 | -10.02519 | -35.59240 | 37000 ft | 434 kts | 30° |
| 2026-04-20 20:30 | -9.97303 | -35.56207 | 36999 ft | 434 kts | 30° |
| 2026-04-20 20:31 | -9.92292 | -35.53295 | 37000 ft | 434 kts | 30° |
| 2026-04-20 20:31 | -9.86855 | -35.50136 | 36999 ft | 434 kts | 30° |
| 2026-04-20 20:32 | -9.81615 | -35.47092 | 36999 ft | 434 kts | 30° |
| 2026-04-20 20:32 | -9.76379 | -35.44052 | 36999 ft | 434 kts | 30° |
| 2026-04-20 20:33 | -9.71134 | -35.41008 | 36999 ft | 434 kts | 30° |
| 2026-04-20 20:33 | -9.65921 | -35.37984 | 37000 ft | 434 kts | 30° |
| 2026-04-20 20:34 | -9.60702 | -35.34957 | 36999 ft | 434 kts | 30° |
| 2026-04-20 20:34 | -9.55471 | -35.31924 | 37000 ft | 434 kts | 30° |
| 2026-04-20 20:35 | -9.50246 | -35.28896 | 37000 ft | 434 kts | 30° |
| 2026-04-20 20:35 | -9.45020 | -35.25869 | 36994 ft | 432 kts | 30° |
| 2026-04-20 20:36 | -9.39764 | -35.22825 | 37000 ft | 435 kts | 30° |
| 2026-04-20 20:36 | -9.34522 | -35.19790 | 36999 ft | 435 kts | 30° |
| 2026-04-20 20:37 | -9.29340 | -35.16791 | 36999 ft | 434 kts | 30° |
| 2026-04-20 20:37 | -9.24070 | -35.13742 | 37000 ft | 434 kts | 30° |
| 2026-04-20 20:38 | -9.18840 | -35.10718 | 37000 ft | 434 kts | 30° |
| 2026-04-20 20:38 | -9.13596 | -35.07686 | 36999 ft | 434 kts | 30° |
| 2026-04-20 20:39 | -9.08346 | -35.04749 | 36998 ft | 434 kts | 25° |
| 2026-04-20 20:39 | -9.02648 | -35.02793 | 36999 ft | 434 kts | 9° |
| 2026-04-20 20:40 | -8.96678 | -35.02037 | 36999 ft | 434 kts | 6° |
| 2026-04-20 20:40 | -8.93685 | -35.01704 | 36788 ft | 431 kts | 6° |
| 2026-04-20 20:40 | -8.90713 | -35.01374 | 36143 ft | 431 kts | 6° |
| 2026-04-20 20:41 | -8.87738 | -35.01041 | 35483 ft | 431 kts | 6° |
| 2026-04-20 20:41 | -8.84793 | -35.00712 | 34839 ft | 431 kts | 6° |
| 2026-04-20 20:41 | -8.81832 | -35.00380 | 34317 ft | 427 kts | 6° |
| 2026-04-20 20:41 | -8.78903 | -35.00052 | 33825 ft | 423 kts | 6° |
| 2026-04-20 20:42 | -8.75985 | -34.99725 | 33312 ft | 419 kts | 6° |
| 2026-04-20 20:42 | -8.73142 | -34.99406 | 32815 ft | 415 kts | 6° |
| 2026-04-20 20:42 | -8.70267 | -34.99083 | 32311 ft | 412 kts | 6° |
| 2026-04-20 20:42 | -8.67438 | -34.98765 | 31813 ft | 408 kts | 6° |
| 2026-04-20 20:43 | -8.64626 | -34.98449 | 31315 ft | 405 kts | 6° |
| 2026-04-20 20:43 | -8.61881 | -34.98141 | 30829 ft | 401 kts | 6° |
| 2026-04-20 20:43 | -8.59123 | -34.97831 | 30337 ft | 398 kts | 6° |
| 2026-04-20 20:43 | -8.56379 | -34.97523 | 29851 ft | 395 kts | 6° |
| 2026-04-20 20:44 | -8.53667 | -34.97218 | 29365 ft | 392 kts | 6° |
| 2026-04-20 20:44 | -8.50982 | -34.96917 | 28884 ft | 389 kts | 6° |
| 2026-04-20 20:44 | -8.48293 | -34.96615 | 28404 ft | 386 kts | 6° |
| 2026-04-20 20:44 | -8.45641 | -34.96317 | 27930 ft | 383 kts | 6° |
| 2026-04-20 20:45 | -8.43015 | -34.96023 | 27457 ft | 380 kts | 6° |
| 2026-04-20 20:45 | -8.40410 | -34.95730 | 26986 ft | 377 kts | 6° |
| 2026-04-20 20:45 | -8.37822 | -34.95440 | 26520 ft | 374 kts | 6° |
| 2026-04-20 20:45 | -8.35284 | -34.95155 | 26062 ft | 371 kts | 6° |
| 2026-04-20 20:46 | -8.32718 | -34.94867 | 25597 ft | 368 kts | 6° |
| 2026-04-20 20:46 | -8.30184 | -34.94583 | 25141 ft | 366 kts | 6° |
| 2026-04-20 20:46 | -8.27644 | -34.94298 | 24683 ft | 363 kts | 6° |
| 2026-04-20 20:46 | -8.25178 | -34.94022 | 24230 ft | 360 kts | 6° |
| 2026-04-20 20:47 | -8.22678 | -34.93741 | 23777 ft | 358 kts | 6° |
| 2026-04-20 20:47 | -8.20228 | -34.93467 | 23328 ft | 355 kts | 6° |
| 2026-04-20 20:47 | -8.17800 | -34.93195 | 22882 ft | 353 kts | 6° |
| 2026-04-20 20:47 | -8.15352 | -34.93028 | 22394 ft | 352 kts | 0° |
| 2026-04-20 20:48 | -8.12930 | -34.93152 | 21948 ft | 349 kts | 352° |
| 2026-04-20 20:48 | -8.10573 | -34.93663 | 21507 ft | 346 kts | 345° |
| 2026-04-20 20:48 | -8.08277 | -34.94334 | 21077 ft | 344 kts | 343° |
| 2026-04-20 20:48 | -8.05989 | -34.95023 | 20640 ft | 341 kts | 343° |
| 2026-04-20 20:49 | -8.03724 | -34.95706 | 20214 ft | 339 kts | 343° |
| 2026-04-20 20:49 | -8.01475 | -34.96382 | 19787 ft | 336 kts | 343° |
| 2026-04-20 20:49 | -7.99252 | -34.97050 | 19364 ft | 334 kts | 343° |
| 2026-04-20 20:49 | -7.97025 | -34.97719 | 18943 ft | 332 kts | 343° |
| 2026-04-20 20:50 | -7.94829 | -34.98378 | 18581 ft | 328 kts | 343° |
| 2026-04-20 20:50 | -7.92654 | -34.99031 | 18171 ft | 325 kts | 343° |
| 2026-04-20 20:50 | -7.90502 | -34.99676 | 17760 ft | 323 kts | 343° |
| 2026-04-20 20:50 | -7.88342 | -35.00324 | 17351 ft | 321 kts | 343° |
| 2026-04-20 20:51 | -7.86194 | -35.00967 | 16938 ft | 319 kts | 343° |
| 2026-04-20 20:51 | -7.84092 | -35.01598 | 16531 ft | 318 kts | 343° |
| 2026-04-20 20:51 | -7.82000 | -35.02224 | 16132 ft | 316 kts | 343° |
| 2026-04-20 20:51 | -7.79887 | -35.02858 | 15726 ft | 314 kts | 343° |
| 2026-04-20 20:52 | -7.77805 | -35.03482 | 15324 ft | 312 kts | 343° |
| 2026-04-20 20:52 | -7.75737 | -35.04101 | 14925 ft | 310 kts | 343° |
| 2026-04-20 20:52 | -7.73690 | -35.04714 | 14531 ft | 308 kts | 343° |
| 2026-04-20 20:52 | -7.71628 | -35.05332 | 14137 ft | 306 kts | 343° |
| 2026-04-20 20:53 | -7.69599 | -35.05940 | 13745 ft | 305 kts | 343° |
| 2026-04-20 20:53 | -7.67589 | -35.06541 | 13354 ft | 303 kts | 343° |
| 2026-04-20 20:53 | -7.65578 | -35.07143 | 12963 ft | 301 kts | 343° |
| 2026-04-20 20:53 | -7.63590 | -35.07738 | 12579 ft | 299 kts | 343° |
| 2026-04-20 20:54 | -7.61601 | -35.08334 | 12196 ft | 298 kts | 343° |
| 2026-04-20 20:54 | -7.59631 | -35.08924 | 11814 ft | 296 kts | 343° |
| 2026-04-20 20:54 | -7.57660 | -35.09513 | 11432 ft | 294 kts | 343° |
| 2026-04-20 20:54 | -7.55725 | -35.10092 | 11188 ft | 287 kts | 343° |
| 2026-04-20 20:55 | -7.53840 | -35.10657 | 11108 ft | 275 kts | 343° |
| 2026-04-20 20:55 | -7.52021 | -35.11201 | 10853 ft | 272 kts | 343° |
| 2026-04-20 20:55 | -7.50222 | -35.11739 | 10509 ft | 271 kts | 343° |
| 2026-04-20 20:55 | -7.48413 | -35.12281 | 10190 ft | 270 kts | 343° |
| 2026-04-20 20:56 | -7.46624 | -35.12815 | 9878 ft | 269 kts | 343° |
| 2026-04-20 20:56 | -7.44843 | -35.13348 | 9555 ft | 268 kts | 343° |
| 2026-04-20 20:56 | -7.43083 | -35.13875 | 9241 ft | 267 kts | 343° |
| 2026-04-20 20:56 | -7.41312 | -35.14405 | 8923 ft | 265 kts | 343° |
| 2026-04-20 20:57 | -7.39541 | -35.14934 | 8606 ft | 264 kts | 343° |
| 2026-04-20 20:57 | -7.37788 | -35.15458 | 8291 ft | 263 kts | 343° |
| 2026-04-20 20:57 | -7.36021 | -35.15987 | 7979 ft | 262 kts | 343° |
| 2026-04-20 20:57 | -7.34281 | -35.16507 | 7665 ft | 261 kts | 343° |
| 2026-04-20 20:58 | -7.32550 | -35.17024 | 7354 ft | 260 kts | 343° |
| 2026-04-20 20:58 | -7.30844 | -35.17534 | 7047 ft | 258 kts | 343° |
| 2026-04-20 20:58 | -7.29125 | -35.18048 | 6738 ft | 257 kts | 343° |
| 2026-04-20 20:58 | -7.27472 | -35.18542 | 6443 ft | 256 kts | 343° |
| 2026-04-20 20:59 | -7.25771 | -35.19051 | 6138 ft | 255 kts | 343° |
| 2026-04-20 20:59 | -7.24074 | -35.19558 | 5832 ft | 254 kts | 343° |
| 2026-04-20 20:59 | -7.22398 | -35.20058 | 5530 ft | 253 kts | 343° |
| 2026-04-20 20:59 | -7.20728 | -35.20557 | 5246 ft | 249 kts | 343° |
| 2026-04-20 21:00 | -7.19086 | -35.21048 | 4932 ft | 244 kts | 343° |
| 2026-04-20 21:00 | -7.17469 | -35.21368 | 4640 ft | 235 kts | 359° |
| 2026-04-20 21:00 | -7.15906 | -35.21061 | 4347 ft | 226 kts | 25° |
| 2026-04-20 21:00 | -7.14653 | -35.20169 | 4118 ft | 213 kts | 43° |
| 2026-04-20 21:01 | -7.13630 | -35.19161 | 3843 ft | 204 kts | 45° |
| 2026-04-20 21:01 | -7.12660 | -35.18190 | 3761 ft | 186 kts | 44° |
| 2026-04-20 21:01 | -7.11772 | -35.17308 | 3696 ft | 172 kts | 44° |
| 2026-04-20 21:01 | -7.10929 | -35.16476 | 3642 ft | 170 kts | 44° |
| 2026-04-20 21:02 | -7.10085 | -35.15645 | 3586 ft | 171 kts | 44° |
| 2026-04-20 21:02 | -7.09234 | -35.14804 | 3504 ft | 172 kts | 45° |
| 2026-04-20 21:02 | -7.08393 | -35.13959 | 3311 ft | 172 kts | 45° |
| 2026-04-20 21:02 | -7.07561 | -35.13121 | 3122 ft | 162 kts | 45° |
| 2026-04-20 21:03 | -7.06790 | -35.12342 | 2985 ft | 158 kts | 45° |
| 2026-04-20 21:03 | -7.06004 | -35.11550 | 2826 ft | 159 kts | 45° |
| 2026-04-20 21:03 | -7.05221 | -35.10761 | 2671 ft | 152 kts | 45° |
| 2026-04-20 21:03 | -7.04498 | -35.10032 | 2551 ft | 149 kts | 45° |
| 2026-04-20 21:04 | -7.03756 | -35.09284 | 2377 ft | 149 kts | 45° |
| 2026-04-20 21:04 | -7.03049 | -35.08540 | 2344 ft | 147 kts | 54° |
| 2026-04-20 21:04 | -7.02763 | -35.07571 | 2294 ft | 149 kts | 97° |
| 2026-04-20 21:04 | -7.03224 | -35.06661 | 2324 ft | 147 kts | 130° |
| 2026-04-20 21:05 | -7.03944 | -35.05898 | 2299 ft | 151 kts | 135° |
| 2026-04-20 21:05 | -7.04685 | -35.05157 | 2277 ft | 147 kts | 135° |
| 2026-04-20 21:05 | -7.05419 | -35.04429 | 2308 ft | 149 kts | 135° |
| 2026-04-20 21:05 | -7.06164 | -35.03690 | 2285 ft | 149 kts | 135° |
| 2026-04-20 21:06 | -7.06901 | -35.02959 | 2277 ft | 149 kts | 135° |
| 2026-04-20 21:06 | -7.07641 | -35.02226 | 2061 ft | 150 kts | 135° |
| 2026-04-20 21:06 | -7.08380 | -35.01493 | 1841 ft | 146 kts | 135° |
| 2026-04-20 21:06 | -7.09101 | -35.00779 | 1693 ft | 147 kts | 135° |
| 2026-04-20 21:07 | -7.09839 | -35.00047 | 1481 ft | 148 kts | 135° |
| 2026-04-20 21:07 | -7.10573 | -34.99320 | 1265 ft | 144 kts | 135° |
| 2026-04-20 21:07 | -7.11283 | -34.98616 | 1085 ft | 142 kts | 135° |
| 2026-04-20 21:07 | -7.11988 | -34.97918 | 907 ft | 143 kts | 135° |
| 2026-04-20 21:08 | -7.12707 | -34.97205 | 708 ft | 143 kts | 135° |
| 2026-04-20 21:08 | -7.13415 | -34.96501 | 485 ft | 144 kts | 135° |
| 2026-04-20 21:08 | -7.14129 | -34.95793 | 254 ft | 144 kts | 135° |
| 2026-04-20 21:08 | -7.14770 | -34.95158 | 222 ft | 104 kts | 136° |
| 2026-04-20 21:09 | -7.15152 | -34.94779 | 222 ft | 53 kts | 135° |
| 2026-04-20 21:09 | -7.15363 | -34.94569 | 222 ft | 38 kts | 135° |
| 2026-04-20 21:09 | -7.15513 | -34.94421 | 222 ft | 21 kts | 135° |
| 2026-04-20 21:09 | -7.15607 | -34.94345 | 222 ft | 16 kts | 165° |
| 2026-04-20 21:10 | -7.15670 | -34.94296 | 222 ft | 10 kts | 69° |
| 2026-04-20 21:10 | -7.15605 | -34.94317 | 222 ft | 13 kts | 313° |
| 2026-04-20 21:10 | -7.15537 | -34.94392 | 222 ft | 15 kts | 313° |
| 2026-04-20 21:10 | -7.15458 | -34.94473 | 222 ft | 17 kts | 315° |
| 2026-04-20 21:11 | -7.15370 | -34.94565 | 222 ft | 18 kts | 313° |
| 2026-04-20 21:11 | -7.15278 | -34.94662 | 222 ft | 19 kts | 315° |
| 2026-04-20 21:11 | -7.15176 | -34.94758 | 222 ft | 19 kts | 318° |
| 2026-04-20 21:11 | -7.15083 | -34.94844 | 222 ft | 16 kts | 316° |
| 2026-04-20 21:12 | -7.15004 | -34.94923 | 222 ft | 15 kts | 315° |
| 2026-04-20 21:12 | -7.14934 | -34.94994 | 222 ft | 13 kts | 315° |
| 2026-04-20 21:12 | -7.14870 | -34.95059 | 222 ft | 13 kts | 315° |
| 2026-04-20 21:12 | -7.14788 | -34.95070 | 222 ft | 14 kts | 39° |
| 2026-04-20 21:13 | -7.14711 | -34.95004 | 222 ft | 14 kts | 8° |
| 2026-04-20 21:13 | -7.14627 | -34.95061 | 222 ft | 14 kts | 338° |
| 2026-04-20 21:13 | -7.14543 | -34.95011 | 222 ft | 13 kts | 46° |
| 2026-04-20 21:13 | -7.14550 | -34.94962 | 222 ft | 2 kts | 134° |
| 2026-04-20 21:14 | -7.14554 | -34.94957 | 222 ft | 0 kts | 134° |
| 2026-04-20 21:14 | -7.14555 | -34.94956 | 222 ft | 0 kts | 134° |